Time;durP1;ratioP1;P1;durP2;ratioP2;P2;SDS_P1;SDS_P2;PMS_P1;PMS_P2;Temp;Humidity;BMP_temperature;BMP_pressure;BME280_temperature;BME280_humidity;BME280_pressure;Samples;Min_cycle;Max_cycle;Signal;HPM_P1;HPM_P2
2022/07/23 00:00:49;;;;;;;5.00;1.90;;;15.90;99.90;;;;;;5075288;28;20102;-76
2022/07/23 00:03:15;;;;;;;6.22;2.20;;;15.90;99.90;;;;;;5075507;28;20044;-76
2022/07/23 00:05:41;;;;;;;6.30;2.10;;;15.90;99.90;;;;;;5074577;28;20522;-76
2022/07/23 00:08:07;;;;;;;4.70;2.05;;;15.90;99.90;;;;;;5075405;28;20043;-76
2022/07/23 00:10:33;;;;;;;7.95;2.45;;;15.90;99.90;;;;;;5091159;28;20051;-76
2022/07/23 00:12:59;;;;;;;3.33;1.75;;;15.80;99.90;;;;;;5074294;28;20055;-76
2022/07/23 00:15:25;;;;;;;7.63;2.05;;;15.80;99.90;;;;;;5074978;28;20040;-76
2022/07/23 00:17:51;;;;;;;4.30;2.00;;;15.80;99.90;;;;;;5075075;28;20044;-76
2022/07/23 00:20:17;;;;;;;5.82;1.90;;;15.80;99.90;;;;;;5073122;28;20490;-76
2022/07/23 00:22:47;;;;;;;5.38;1.85;;;15.80;99.90;;;;;;5074652;28;20137;-76
2022/07/23 00:25:13;;;;;;;4.25;2.15;;;15.70;99.90;;;;;;5075082;28;20045;-76
2022/07/23 00:27:39;;;;;;;6.18;2.05;;;15.70;99.90;;;;;;5073652;28;20048;-76
2022/07/23 00:30:05;;;;;;;6.68;2.67;;;15.70;99.90;;;;;;5074972;28;20067;-76
2022/07/23 00:32:30;;;;;;;5.55;2.15;;;15.70;99.90;;;;;;5074954;28;20044;-75
2022/07/23 00:34:56;;;;;;;7.10;2.80;;;15.60;99.90;;;;;;5075249;28;20036;-76
2022/07/23 00:37:21;;;;;;;4.75;2.60;;;15.60;99.90;;;;;;5090496;28;20056;-76
2022/07/23 00:39:47;;;;;;;6.72;1.95;;;15.70;99.90;;;;;;5074704;28;20083;-75
2022/07/23 00:42:13;;;;;;;5.03;2.35;;;15.70;99.90;;;;;;5074641;28;20037;-76
2022/07/23 00:44:38;;;;;;;6.75;2.30;;;15.60;99.90;;;;;;5074387;28;20369;-76
2022/07/23 00:47:05;;;;;;;8.40;2.78;;;15.70;99.90;;;;;;5074386;28;20036;-76
2022/07/23 00:49:31;;;;;;;6.85;3.60;;;15.60;99.90;;;;;;5074556;28;20067;-75
2022/07/23 00:51:57;;;;;;;9.10;3.47;;;15.60;99.90;;;;;;5090413;28;20454;-76
2022/07/23 00:54:25;;;;;;;8.93;2.80;;;15.60;99.90;;;;;;5073171;28;20432;-75
2022/07/23 00:56:51;;;;;;;6.05;2.80;;;15.60;99.90;;;;;;5074414;28;20127;-75
2022/07/23 00:59:17;;;;;;;9.27;3.33;;;15.60;99.90;;;;;;5073098;28;20130;-75
2022/07/23 01:01:48;;;;;;;9.02;3.40;;;15.60;99.90;;;;;;5074128;28;20472;-76
2022/07/23 01:04:15;;;;;;;5.82;2.90;;;15.60;99.90;;;;;;5073006;28;20086;-76
2022/07/23 01:06:42;;;;;;;8.80;3.53;;;15.60;99.90;;;;;;5074267;28;20109;-75
2022/07/23 01:09:08;;;;;;;7.93;3.58;;;15.60;99.90;;;;;;5074238;28;20052;-75
2022/07/23 01:11:35;;;;;;;8.75;3.75;;;15.60;99.90;;;;;;5074126;28;20044;-75
2022/07/23 01:14:15;;;;;;;5.97;3.45;;;15.60;99.90;;;;;;5074183;28;20525;-75
2022/07/23 01:16:43;;;;;;;6.45;3.50;;;15.60;99.90;;;;;;5074039;28;20132;-75
2022/07/23 01:19:09;;;;;;;6.35;3.17;;;15.60;99.90;;;;;;5074069;28;20072;-76
2022/07/23 01:21:49;;;;;;;7.00;3.20;;;15.60;99.90;;;;;;5072575;28;20037;-76
2022/07/23 01:24:16;;;;;;;8.73;2.95;;;15.60;99.90;;;;;;5089438;28;20385;-75
2022/07/23 01:26:44;;;;;;;5.32;2.95;;;15.60;99.90;;;;;;5073779;28;20540;-76
2022/07/23 01:29:10;;;;;;;7.47;3.10;;;15.60;99.90;;;;;;5074325;28;20045;-75
2022/07/23 01:31:36;;;;;;;6.45;3.17;;;15.60;99.90;;;;;;5073013;28;20055;-76
2022/07/23 01:34:02;;;;;;;7.22;3.28;;;15.60;99.90;;;;;;5073888;28;20033;-75
2022/07/23 01:36:28;;;;;;;8.57;3.25;;;15.60;99.90;;;;;;5073787;28;20472;-76
2022/07/23 01:38:54;;;;;;;9.68;3.42;;;15.60;99.90;;;;;;5072324;28;20052;-76
2022/07/23 01:41:20;;;;;;;8.02;3.25;;;15.60;99.90;;;;;;5072660;28;20052;-76
2022/07/23 01:43:45;;;;;;;9.02;3.80;;;15.50;99.90;;;;;;5072428;28;20525;-76
2022/07/23 01:46:12;;;;;;;7.65;3.80;;;15.50;99.90;;;;;;5073711;28;20553;-76
2022/07/23 01:48:38;;;;;;;10.35;4.40;;;15.50;99.90;;;;;;5073665;28;20040;-76
2022/07/23 01:51:03;;;;;;;8.85;3.90;;;15.50;99.90;;;;;;5072464;28;20051;-76
2022/07/23 01:53:31;;;;;;;11.30;4.07;;;15.50;99.90;;;;;;5073701;28;20051;-75
2022/07/23 01:55:57;;;;;;;7.65;3.75;;;15.50;99.90;;;;;;5073466;28;20476;-75
2022/07/23 01:58:24;;;;;;;9.20;4.25;;;15.50;99.90;;;;;;5072291;28;20075;-75
2022/07/23 02:00:49;;;;;;;6.60;4.00;;;15.50;99.90;;;;;;5073537;28;20040;-75
2022/07/23 02:03:15;;;;;;;12.40;4.20;;;15.50;99.90;;;;;;5072284;28;20476;-75
2022/07/23 02:05:40;;;;;;;9.52;3.60;;;15.50;99.90;;;;;;5072042;28;20048;-76
2022/07/23 02:08:06;;;;;;;14.50;4.32;;;15.50;99.90;;;;;;5073513;28;20040;-75
2022/07/23 02:10:32;;;;;;;9.68;4.22;;;15.40;99.90;;;;;;5073325;28;20078;-75
2022/07/23 02:12:58;;;;;;;7.07;4.10;;;15.40;99.90;;;;;;5072023;28;20049;-75
2022/07/23 02:15:23;;;;;;;9.80;4.57;;;15.40;99.90;;;;;;5072207;28;20499;-75
2022/07/23 02:17:49;;;;;;;8.55;3.88;;;15.40;99.90;;;;;;5073194;28;20056;-75
2022/07/23 02:20:15;;;;;;;9.57;4.90;;;15.40;99.90;;;;;;5072998;28;20044;-75
2022/07/23 02:22:41;;;;;;;10.85;4.30;;;15.40;99.90;;;;;;5073037;28;20071;-75
2022/07/23 02:25:08;;;;;;;10.30;4.93;;;15.40;99.90;;;;;;5072393;28;20052;-75
2022/07/23 02:27:34;;;;;;;10.68;4.55;;;15.40;99.90;;;;;;5073468;28;20051;-75
2022/07/23 02:29:59;;;;;;;10.07;4.72;;;15.40;99.90;;;;;;5072001;28;20571;-75
2022/07/23 02:32:26;;;;;;;9.77;4.45;;;15.40;99.90;;;;;;5072239;28;20059;-75
2022/07/23 02:34:52;;;;;;;10.65;4.00;;;15.40;99.90;;;;;;5071735;28;20047;-76
2022/07/23 02:37:17;;;;;;;11.32;4.63;;;15.40;99.90;;;;;;5073256;28;20049;-75
2022/07/23 02:39:43;;;;;;;11.40;4.53;;;15.40;99.90;;;;;;5072959;28;20047;-75
2022/07/23 02:42:09;;;;;;;9.80;4.97;;;15.40;99.90;;;;;;5073235;28;20048;-75
2022/07/23 02:44:34;;;;;;;10.35;5.28;;;15.40;99.90;;;;;;5076031;28;20103;-75
2022/07/23 02:47:00;;;;;;;12.00;5.90;;;15.40;99.90;;;;;;5076893;28;20044;-75
2022/07/23 02:49:26;;;;;;;8.60;4.60;;;15.30;99.90;;;;;;5077097;28;20052;-75
2022/07/23 02:51:52;;;;;;;11.43;5.30;;;15.30;99.90;;;;;;5075396;28;20056;-75
2022/07/23 02:54:17;;;;;;;11.60;3.97;;;15.30;99.90;;;;;;5075643;28;20483;-75
2022/07/23 02:56:43;;;;;;;8.82;4.18;;;15.40;99.90;;;;;;5075611;28;20475;-75
2022/07/23 02:59:09;;;;;;;7.35;3.63;;;15.40;99.90;;;;;;5076565;28;20040;-75
2022/07/23 03:01:35;;;;;;;4.95;2.80;;;15.50;99.90;;;;;;5076827;28;20060;-75
2022/07/23 03:04:01;;;;;;;3.67;1.40;;;15.40;99.90;;;;;;5076560;28;20047;-74
2022/07/23 03:06:26;;;;;;;5.78;1.75;;;15.50;99.90;;;;;;5075447;28;20127;-75
2022/07/23 03:08:52;;;;;;;5.40;1.63;;;15.60;99.90;;;;;;5076563;28;20503;-75
2022/07/23 03:11:18;;;;;;;4.57;1.40;;;15.60;99.90;;;;;;5076370;28;20048;-75
2022/07/23 03:13:43;;;;;;;4.53;1.52;;;15.70;99.90;;;;;;5075176;28;20040;-75
2022/07/23 03:16:09;;;;;;;5.00;1.58;;;15.80;99.90;;;;;;5075177;28;20475;-75
2022/07/23 03:18:35;;;;;;;3.30;1.52;;;15.70;99.90;;;;;;5075052;28;20048;-75
2022/07/23 03:21:01;;;;;;;3.40;1.58;;;15.70;99.90;;;;;;5076367;28;20052;-75
2022/07/23 03:23:27;;;;;;;3.75;1.30;;;15.80;99.90;;;;;;5074747;28;20057;-75
2022/07/23 03:25:52;;;;;;;2.60;1.35;;;15.80;99.90;;;;;;5075159;28;20049;-75
2022/07/23 03:28:18;;;;;;;5.97;1.42;;;15.80;99.90;;;;;;5074908;28;20055;-75
2022/07/23 03:30:48;;;;;;;4.68;1.85;;;15.80;99.90;;;;;;5074784;28;20048;-75
2022/07/23 03:33:17;;;;;;;4.90;1.27;;;15.80;99.90;;;;;;5075685;28;20545;-75
2022/07/23 03:35:44;;;;;;;8.10;1.67;;;15.70;99.90;;;;;;5075389;28;20392;-75
2022/07/23 03:38:10;;;;;;;5.18;1.90;;;15.70;99.90;;;;;;5074067;28;20052;-75
2022/07/23 03:40:36;;;;;;;6.43;1.55;;;15.70;99.90;;;;;;5074005;28;20102;-75
2022/07/23 03:43:02;;;;;;;3.92;1.65;;;15.70;99.90;;;;;;5074196;28;20041;-75
2022/07/23 03:45:28;;;;;;;4.85;1.45;;;15.70;99.90;;;;;;5074800;28;20411;-75
2022/07/23 03:47:53;;;;;;;6.70;3.05;;;15.80;99.90;;;;;;5074178;28;20075;-75
2022/07/23 03:50:20;;;;;;;6.10;2.08;;;15.70;99.90;;;;;;5073795;28;20124;-75
2022/07/23 03:52:45;;;;;;;5.47;1.75;;;15.70;99.90;;;;;;5075417;28;20575;-75
2022/07/23 03:55:11;;;;;;;3.95;1.50;;;15.70;99.90;;;;;;5073366;28;20119;-75
2022/07/23 03:57:37;;;;;;;6.70;1.40;;;15.80;99.90;;;;;;5075849;28;20040;-75
2022/07/23 04:00:05;;;;;;;3.75;1.30;;;15.80;99.90;;;;;;5073822;28;20044;-75
2022/07/23 04:02:31;;;;;;;2.05;1.20;;;15.90;99.90;;;;;;5074062;28;20044;-75
2022/07/23 04:04:56;;;;;;;3.00;1.10;;;15.90;99.90;;;;;;5074052;28;20503;-75
2022/07/23 04:07:22;;;;;;;2.80;1.00;;;15.90;99.90;;;;;;5075416;28;20037;-75
2022/07/23 04:09:48;;;;;;;5.00;1.40;;;16.00;99.90;;;;;;5075103;28;20483;-75
2022/07/23 04:12:13;;;;;;;4.68;1.50;;;15.90;99.90;;;;;;5074924;28;20499;-75
2022/07/23 04:14:39;;;;;;;3.42;1.20;;;15.90;99.90;;;;;;5073849;28;20045;-75
2022/07/23 04:17:05;;;;;;;2.83;1.13;;;15.90;99.90;;;;;;5073763;28;20094;-75
2022/07/23 04:19:30;;;;;;;3.58;1.25;;;15.80;99.90;;;;;;5075026;28;20040;-75
2022/07/23 04:21:57;;;;;;;2.45;1.10;;;15.80;99.90;;;;;;5073672;28;20045;-75
2022/07/23 04:24:23;;;;;;;4.53;1.20;;;15.80;99.90;;;;;;5073604;28;20052;-75
2022/07/23 04:26:49;;;;;;;5.43;1.35;;;15.70;99.90;;;;;;5073544;28;20059;-75
2022/07/23 04:29:14;;;;;;;4.25;1.35;;;15.80;99.90;;;;;;5074735;28;20048;-75
2022/07/23 04:31:40;;;;;;;5.55;1.10;;;15.70;99.90;;;;;;5073659;28;20070;-75
2022/07/23 04:34:05;;;;;;;4.05;1.35;;;15.70;99.90;;;;;;5074847;28;20040;-75
2022/07/23 04:36:31;;;;;;;5.35;1.70;;;15.80;99.90;;;;;;5073586;28;20078;-75
2022/07/23 04:38:57;;;;;;;4.40;1.38;;;15.80;99.90;;;;;;5074338;28;20396;-75
2022/07/23 04:41:22;;;;;;;3.47;1.13;;;15.90;99.90;;;;;;5073523;28;20049;-75
2022/07/23 04:43:48;;;;;;;1.88;0.90;;;15.90;99.90;;;;;;5074308;28;20484;-75
2022/07/23 04:46:14;;;;;;;2.15;1.10;;;15.90;99.90;;;;;;5073334;28;20048;-75
2022/07/23 04:48:39;;;;;;;4.93;1.85;;;15.90;99.90;;;;;;5073081;28;20048;-75
2022/07/23 04:51:05;;;;;;;2.95;0.93;;;15.90;99.90;;;;;;5073049;28;20051;-75
2022/07/23 04:53:31;;;;;;;4.88;0.80;;;15.90;99.90;;;;;;5074534;28;20048;-75
2022/07/23 04:55:57;;;;;;;6.38;1.10;;;15.90;99.90;;;;;;5074107;28;20085;-75
2022/07/23 04:58:22;;;;;;;3.95;0.90;;;16.00;99.90;;;;;;5074343;28;20071;-75
2022/07/23 05:00:48;;;;;;;2.22;0.90;;;16.00;99.90;;;;;;5074334;28;20048;-75
2022/07/23 05:03:14;;;;;;;3.78;0.90;;;16.00;99.90;;;;;;5072890;28;20036;-75
2022/07/23 05:05:39;;;;;;;3.35;0.98;;;16.00;99.90;;;;;;5072899;28;20075;-75
2022/07/23 05:08:05;;;;;;;6.50;1.38;;;16.00;99.90;;;;;;5073961;28;20079;-75
2022/07/23 05:10:31;;;;;;;7.82;2.08;;;16.00;99.90;;;;;;5073851;28;20133;-75
2022/07/23 05:12:57;;;;;;;6.03;2.30;;;15.90;99.90;;;;;;5073915;28;20040;-75
2022/07/23 05:15:23;;;;;;;7.70;2.20;;;15.80;99.90;;;;;;5073846;28;20041;-75
2022/07/23 05:17:48;;;;;;;5.00;1.40;;;15.90;99.90;;;;;;5072777;28;20096;-75
2022/07/23 05:20:14;;;;;;;2.53;0.88;;;15.90;99.90;;;;;;5073952;28;20048;-75
2022/07/23 05:22:41;;;;;;;6.53;1.52;;;15.90;99.90;;;;;;5072525;28;20131;-75
2022/07/23 05:25:07;;;;;;;1.55;0.82;;;15.90;99.90;;;;;;5072559;28;20049;-75
2022/07/23 05:27:32;;;;;;;1.30;0.60;;;15.90;99.90;;;;;;5072654;28;20105;-75
2022/07/23 05:29:58;;;;;;;2.97;1.02;;;16.00;99.90;;;;;;5072605;28;20055;-75
2022/07/23 05:32:24;;;;;;;3.15;0.80;;;16.10;99.90;;;;;;5073561;28;20376;-74
2022/07/23 05:34:50;;;;;;;1.98;0.80;;;16.10;99.90;;;;;;5072337;28;20503;-74
2022/07/23 05:37:16;;;;;;;1.33;0.80;;;16.20;99.90;;;;;;5072185;28;20047;-75
2022/07/23 05:39:41;;;;;;;4.80;1.00;;;16.20;99.90;;;;;;5073669;28;20056;-75
2022/07/23 05:42:07;;;;;;;2.53;0.70;;;16.20;99.90;;;;;;5073683;28;20048;-75
2022/07/23 05:44:33;;;;;;;2.38;0.80;;;16.30;99.90;;;;;;5072501;28;20055;-75
2022/07/23 05:46:59;;;;;;;3.97;0.80;;;16.30;99.90;;;;;;5073775;28;20047;-75
2022/07/23 05:49:25;;;;;;;6.07;0.90;;;16.30;99.90;;;;;;5072489;28;20384;-75
2022/07/23 05:51:50;;;;;;;3.22;1.15;;;16.50;99.90;;;;;;5072551;28;20144;-75
2022/07/23 05:54:16;;;;;;;6.35;1.20;;;16.40;99.90;;;;;;5073546;28;20480;-75
2022/07/23 05:56:42;;;;;;;3.45;1.00;;;16.50;99.90;;;;;;5072477;28;20135;-75
2022/07/23 05:59:08;;;;;;;2.95;0.85;;;16.60;99.90;;;;;;5072305;28;20056;-75
2022/07/23 06:01:33;;;;;;;3.65;0.80;;;16.70;99.90;;;;;;5073218;28;20503;-75
2022/07/23 06:03:59;;;;;;;3.25;0.63;;;16.80;99.90;;;;;;5072013;28;20523;-75
2022/07/23 06:06:25;;;;;;;2.15;0.70;;;16.80;99.90;;;;;;5072294;28;20048;-75
2022/07/23 06:08:50;;;;;;;2.58;0.70;;;16.90;99.90;;;;;;5073216;28;20040;-76
2022/07/23 06:11:16;;;;;;;1.67;0.77;;;16.80;99.90;;;;;;5073241;28;20502;-76
2022/07/23 06:13:41;;;;;;;6.53;0.90;;;17.00;99.90;;;;;;5072279;28;20407;-75
2022/07/23 06:16:07;;;;;;;2.20;0.80;;;17.20;99.90;;;;;;5073168;28;20041;-75
2022/07/23 06:18:33;;;;;;;1.63;0.90;;;17.40;99.90;;;;;;5074137;28;20040;-76
2022/07/23 06:20:58;;;;;;;1.45;0.70;;;17.60;99.90;;;;;;5076000;28;20040;-75
2022/07/23 06:23:24;;;;;;;3.10;0.80;;;17.90;99.90;;;;;;5077084;28;20061;-76
2022/07/23 06:25:50;;;;;;;2.65;0.63;;;18.10;99.90;;;;;;5076084;28;20052;-75
2022/07/23 06:28:15;;;;;;;1.67;0.80;;;18.40;99.90;;;;;;5077321;28;20403;-76
2022/07/23 06:30:41;;;;;;;3.22;0.88;;;18.40;99.90;;;;;;5077044;28;20373;-76
2022/07/23 06:33:07;;;;;;;1.83;0.65;;;18.40;99.90;;;;;;5077082;28;20569;-78
2022/07/23 06:35:33;;;;;;;2.33;0.73;;;18.30;99.90;;;;;;5083726;28;20078;-74
2022/07/23 06:37:59;;;;;;;1.83;0.82;;;18.10;99.90;;;;;;5079587;28;20119;-74
2022/07/23 06:40:25;;;;;;;2.58;1.10;;;18.00;99.90;;;;;;5075226;28;20458;-74
2022/07/23 06:42:51;;;;;;;3.17;0.88;;;17.90;99.90;;;;;;5076905;28;20056;-74
2022/07/23 06:45:17;;;;;;;3.60;1.10;;;17.90;99.90;;;;;;5075390;28;20036;-74
2022/07/23 06:47:43;;;;;;;2.58;0.70;;;17.80;99.90;;;;;;5075319;28;20069;-74
2022/07/23 06:50:09;;;;;;;1.77;0.77;;;17.90;99.90;;;;;;5075510;28;20135;-74
2022/07/23 06:52:34;;;;;;;2.97;0.70;;;18.10;99.90;;;;;;5076383;28;20431;-75
2022/07/23 06:55:00;;;;;;;5.55;0.75;;;18.20;99.90;;;;;;5076625;28;20101;-75
2022/07/23 06:57:26;;;;;;;2.60;0.68;;;18.20;99.90;;;;;;5076490;28;20044;-74
2022/07/23 06:59:53;;;;;;;2.25;1.13;;;18.30;99.90;;;;;;5076155;28;20041;-75
2022/07/23 07:02:18;;;;;;;5.03;2.22;;;18.20;99.90;;;;;;5076512;28;20064;-74
2022/07/23 07:04:44;;;;;;;4.13;1.52;;;18.20;99.90;;;;;;5076153;28;20399;-73
2022/07/23 07:07:09;;;;;;;4.78;1.80;;;18.20;99.90;;;;;;5075109;28;20052;-75
2022/07/23 07:09:35;;;;;;;2.50;1.10;;;18.20;99.90;;;;;;5076054;28;20041;-75
2022/07/23 07:12:01;;;;;;;2.95;1.00;;;18.10;99.90;;;;;;5076229;28;20072;-74
2022/07/23 07:14:27;;;;;;;2.03;0.93;;;18.00;99.90;;;;;;5076180;28;20118;-74
2022/07/23 07:16:52;;;;;;;2.83;0.93;;;18.10;99.90;;;;;;5074663;28;20476;-75
2022/07/23 07:19:18;;;;;;;1.88;0.73;;;18.50;99.90;;;;;;5076097;28;20476;-74
2022/07/23 07:21:44;;;;;;;2.90;1.15;;;18.80;99.90;;;;;;5075819;28;20087;-75
2022/07/23 07:24:10;;;;;;;2.40;1.00;;;18.90;99.90;;;;;;5074476;28;20114;-74
2022/07/23 07:26:35;;;;;;;7.32;1.05;;;19.00;99.90;;;;;;5076022;28;20052;-74
2022/07/23 07:29:01;;;;;;;5.10;1.83;;;19.10;99.90;;;;;;5076022;28;20055;-74
2022/07/23 07:31:27;;;;;;;3.90;1.00;;;19.10;99.90;;;;;;5075890;28;20070;-75
2022/07/23 07:33:52;;;;;;;6.88;1.40;;;19.20;99.90;;;;;;5074421;28;20048;-75
2022/07/23 07:36:18;;;;;;;5.63;1.17;;;19.30;99.90;;;;;;5074671;28;20127;-74
2022/07/23 07:38:44;;;;;;;5.32;1.13;;;19.40;99.90;;;;;;5075669;28;20072;-74
2022/07/23 07:41:10;;;;;;;2.45;0.85;;;19.40;99.90;;;;;;5074161;28;20052;-75
2022/07/23 07:43:36;;;;;;;4.05;1.10;;;19.40;99.90;;;;;;5084273;28;20072;-75
2022/07/23 07:46:03;;;;;;;4.00;0.95;;;19.40;99.90;;;;;;5076871;28;20075;-74
2022/07/23 07:48:28;;;;;;;4.72;1.17;;;19.40;99.90;;;;;;5075332;28;20403;-75
2022/07/23 07:50:54;;;;;;;1.38;0.68;;;19.40;99.90;;;;;;5074123;28;20499;-75
2022/07/23 07:53:20;;;;;;;3.08;1.15;;;19.50;99.90;;;;;;5074025;28;20093;-74
2022/07/23 07:55:46;;;;;;;5.07;1.00;;;19.50;99.90;;;;;;5075563;28;20045;-74
2022/07/23 07:58:11;;;;;;;2.92;0.90;;;19.60;99.90;;;;;;5073903;28;20060;-74
2022/07/23 08:00:37;;;;;;;7.45;0.80;;;19.60;99.90;;;;;;5082613;28;20058;-74
2022/07/23 08:03:03;;;;;;;1.45;0.82;;;19.60;99.90;;;;;;5095393;28;20036;-74
2022/07/23 08:05:30;;;;;;;5.30;0.90;;;19.60;99.90;;;;;;5095578;28;20047;-74
2022/07/23 08:07:57;;;;;;;2.88;1.33;;;19.50;99.90;;;;;;5093915;28;20055;-75
2022/07/23 08:10:24;;;;;;;5.32;1.13;;;19.50;99.90;;;;;;5094888;28;20032;-74
2022/07/23 08:12:56;;;;;;;1.95;1.00;;;19.60;99.90;;;;;;5079507;28;20047;-75
2022/07/23 08:15:22;;;;;;;1.88;0.80;;;19.90;99.90;;;;;;5077462;28;20044;-75
2022/07/23 08:17:49;;;;;;;2.75;1.15;;;20.30;99.90;;;;;;5078984;28;20047;-75
2022/07/23 08:20:16;;;;;;;3.03;0.80;;;20.40;99.90;;;;;;5078728;28;20044;-75
2022/07/23 08:22:46;;;;;;;2.67;0.90;;;20.30;99.90;;;;;;5082781;28;20060;-75
2022/07/23 08:25:13;;;;;;;3.72;1.08;;;20.30;99.90;;;;;;5074935;28;20040;-75
2022/07/23 08:27:39;;;;;;;2.17;1.00;;;20.40;99.90;;;;;;5074843;28;20083;-75
2022/07/23 08:30:05;;;;;;;1.80;1.05;;;20.40;99.90;;;;;;5074656;28;20064;-75
2022/07/23 08:32:31;;;;;;;2.80;0.93;;;20.50;99.90;;;;;;5074640;28;20099;-75
2022/07/23 08:34:56;;;;;;;5.53;1.00;;;20.30;99.90;;;;;;5074404;28;20444;-75
2022/07/23 08:37:22;;;;;;;4.20;1.08;;;20.10;99.90;;;;;;5071407;28;20051;-75
2022/07/23 08:39:47;;;;;;;1.85;0.90;;;20.00;99.90;;;;;;5073318;28;20044;-75
2022/07/23 08:42:14;;;;;;;2.88;1.08;;;20.10;99.90;;;;;;5073120;28;20055;-75
2022/07/23 08:44:44;;;;;;;2.63;0.90;;;20.00;99.90;;;;;;5072492;28;20041;-76
2022/07/23 08:47:11;;;;;;;5.45;1.10;;;19.90;99.90;;;;;;5074723;28;20119;-76
2022/07/23 08:49:38;;;;;;;3.70;1.05;;;19.80;99.90;;;;;;5074392;28;20579;-76
2022/07/23 08:52:05;;;;;;;2.85;0.88;;;19.70;99.90;;;;;;5073071;28;20036;-76
2022/07/23 08:54:32;;;;;;;2.25;1.00;;;19.70;99.90;;;;;;5074530;28;20044;-75
2022/07/23 08:56:57;;;;;;;3.35;1.25;;;19.70;99.90;;;;;;5074485;28;20040;-75
2022/07/23 08:59:23;;;;;;;3.33;1.10;;;19.60;99.90;;;;;;5074351;28;20565;-75
2022/07/23 09:01:49;;;;;;;3.63;1.27;;;19.50;99.90;;;;;;5074384;28;20056;-75
2022/07/23 09:04:14;;;;;;;3.10;0.90;;;19.50;99.90;;;;;;5072772;28;20047;-75
2022/07/23 09:06:40;;;;;;;3.60;1.05;;;19.60;99.90;;;;;;5073060;28;20048;-75
2022/07/23 09:09:20;;;;;;;6.05;1.00;;;19.80;99.90;;;;;;5074242;28;20086;-76
2022/07/23 09:11:47;;;;;;;4.90;1.10;;;19.70;99.90;;;;;;5074251;28;20032;-75
2022/07/23 09:14:13;;;;;;;4.05;0.93;;;19.60;99.90;;;;;;5073856;28;20545;-75
2022/07/23 09:16:39;;;;;;;3.83;1.30;;;19.50;99.90;;;;;;5074071;28;20080;-75
2022/07/23 09:19:06;;;;;;;2.45;1.00;;;19.50;99.90;;;;;;5073717;28;20522;-75
2022/07/23 09:21:39;;;;;;;4.32;1.00;;;19.60;99.90;;;;;;5072712;28;20113;-76
2022/07/23 09:24:06;;;;;;;;;;;19.60;99.90;;;;;;5073196;28;20057;-75
2022/07/23 09:26:37;;;;;;;2.17;1.00;;;19.80;99.90;;;;;;5073972;28;19946;-75
2022/07/23 09:29:10;;;;;;;3.42;1.30;;;20.00;99.90;;;;;;5074008;28;20044;-76
2022/07/23 09:31:43;;;;;;;;;;;20.30;99.90;;;;;;5074600;28;20097;-75
2022/07/23 09:34:30;;;;;;;5.88;1.40;;;20.40;99.90;;;;;;5072413;28;19965;-76
2022/07/23 09:37:09;;;;;;;3.53;1.20;;;20.60;99.90;;;;;;5073648;28;20419;-76
2022/07/23 09:39:34;;;;;;;4.80;1.13;;;20.70;99.90;;;;;;5073482;28;20045;-76
2022/07/23 09:42:20;;;;;;;6.55;1.50;;;20.60;99.90;;;;;;5073764;28;20039;-76
2022/07/23 09:44:50;;;;;;;3.58;0.98;;;20.70;99.90;;;;;;5072581;28;20049;-76
2022/07/23 09:47:17;;;;;;;7.10;1.42;;;20.60;99.90;;;;;;5072412;28;20076;-76
2022/07/23 09:50:04;;;;;;;2.75;1.00;;;20.50;99.90;;;;;;5073446;28;20438;-75
2022/07/23 09:52:34;;;;;;;2.47;0.93;;;20.50;99.90;;;;;;5072765;28;20040;-76
2022/07/23 09:55:05;;;;;;;3.28;1.35;;;20.50;99.90;;;;;;5073307;28;20060;-75
2022/07/23 09:57:32;;;;;;;2.90;1.25;;;20.30;99.90;;;;;;5072717;28;20492;-76
2022/07/23 10:00:01;;;;;;;3.30;1.05;;;20.50;99.90;;;;;;5073450;28;20434;-76
2022/07/23 10:02:28;;;;;;;2.67;1.13;;;20.70;99.90;;;;;;5072066;28;20049;-76
2022/07/23 10:04:57;;;;;;;1.63;0.80;;;20.70;99.90;;;;;;5073504;28;20056;-76
2022/07/23 10:07:26;;;;;;;3.85;1.02;;;20.80;99.90;;;;;;5072019;28;20045;-76
2022/07/23 10:09:52;;;;;;;4.57;1.02;;;20.80;99.90;;;;;;5073508;28;20048;-76
2022/07/23 10:14:48;;;;;;;2.95;0.82;;;20.80;99.90;;;;;;5073196;28;20526;-76
2022/07/23 10:17:14;;;;;;;4.10;1.15;;;21.10;99.90;;;;;;5072094;28;20052;-76
2022/07/23 10:19:40;;;;;;;2.53;1.15;;;21.20;99.90;;;;;;5073096;28;20052;-76
2022/07/23 10:22:09;;;;;;;2.85;0.80;;;21.20;99.90;;;;;;5072883;28;20496;-76
2022/07/23 10:25:13;;;;;;;2.83;1.10;;;21.10;99.90;;;;;;5073362;28;20037;-76
2022/07/23 10:27:56;;;;;;;2.75;1.00;;;21.00;99.90;;;;;;5073352;28;20043;-75
2022/07/23 10:30:59;;;;;;;4.97;1.60;;;21.00;99.90;;;;;;5073217;28;20058;-75
2022/07/23 10:33:32;;;;;;;3.28;1.30;;;21.00;99.90;;;;;;5073485;28;20052;-75
2022/07/23 10:36:11;;;;;;;1.92;1.08;;;21.20;99.90;;;;;;5071767;28;20036;-76
2022/07/23 10:38:57;;;;;;;2.78;1.00;;;21.30;99.90;;;;;;5071785;28;20052;-76
2022/07/23 10:41:38;;;;;;;3.97;1.77;;;21.40;99.90;;;;;;5073055;28;20055;-76
2022/07/23 10:44:13;;;;;;;3.30;1.42;;;21.20;99.90;;;;;;5072981;28;20041;-76
2022/07/23 10:49:41;;;;;;;3.38;1.10;;;21.80;99.90;;;;;;5073340;28;20073;-76
2022/07/23 10:52:28;;;;;;;7.43;1.50;;;21.70;99.90;;;;;;5071720;28;20128;-76
2022/07/23 10:55:17;;;;;;;3.75;1.10;;;21.70;99.90;;;;;;5071748;28;20406;-76
2022/07/23 10:57:50;;;;;;;3.20;1.20;;;21.60;99.90;;;;;;5072757;28;20131;-76
2022/07/23 11:00:28;;;;;;;4.10;1.10;;;21.50;99.90;;;;;;5071436;28;20063;-76
2022/07/23 11:03:29;;;;;;;3.85;1.17;;;21.50;99.90;;;;;;5072764;28;20040;-76
2022/07/23 11:05:54;;;;;;;3.45;1.20;;;21.70;99.90;;;;;;5070719;28;20102;-76
2022/07/23 11:08:20;;;;;;;4.03;1.10;;;21.90;99.90;;;;;;5075131;28;20041;-76
2022/07/23 11:10:50;;;;;;;4.88;1.30;;;21.80;99.90;;;;;;5076545;28;20115;-76
2022/07/23 11:13:22;;;;;;;11.68;1.50;;;21.80;99.90;;;;;;5076386;28;20121;-76
2022/07/23 11:16:04;;;;;;;4.97;1.40;;;21.50;99.90;;;;;;5076434;28;20041;-76
2022/07/23 11:18:39;;;;;;;4.90;1.10;;;21.60;99.90;;;;;;5074919;28;20053;-76
2022/07/23 11:21:36;;;;;;;6.65;1.58;;;21.70;99.90;;;;;;5074761;28;20052;-75
2022/07/23 11:24:08;;;;;;;2.13;1.10;;;21.60;99.90;;;;;;5054227;28;20056;-76
2022/07/23 11:26:43;;;;;;;6.15;1.30;;;21.60;99.90;;;;;;5076304;28;20048;-75
2022/07/23 11:29:37;;;;;;;4.45;1.20;;;21.70;99.90;;;;;;5074767;28;20090;-75
2022/07/23 11:32:04;;;;;;;3.13;1.10;;;21.90;99.90;;;;;;5074667;28;20380;-76
2022/07/23 11:34:30;;;;;;;4.07;1.10;;;22.10;99.90;;;;;;5074840;28;20052;-76
2022/07/23 11:36:55;;;;;;;3.03;1.20;;;22.00;99.90;;;;;;5074699;28;20044;-76
2022/07/23 11:39:26;;;;;;;3.38;1.08;;;22.20;99.90;;;;;;5074543;28;20046;-76
2022/07/23 11:41:52;;;;;;;3.30;1.30;;;22.40;99.90;;;;;;5075807;28;20458;-76
2022/07/23 11:44:32;;;;;;;3.92;1.63;;;22.60;99.90;;;;;;5075816;28;20068;-76
2022/07/23 11:47:03;;;;;;;3.25;0.90;;;22.60;99.90;;;;;;5075570;28;20052;-76
2022/07/23 11:49:30;;;;;;;3.95;1.40;;;22.70;99.90;;;;;;5075570;28;20458;-76
2022/07/23 11:52:13;;;;;;;2.10;1.02;;;22.70;99.90;;;;;;5074193;28;20484;-76
2022/07/23 11:54:51;;;;;;;3.70;1.00;;;23.00;99.90;;;;;;5075832;28;20048;-76
2022/07/23 11:57:19;;;;;;;2.85;1.40;;;23.10;99.90;;;;;;5075462;28;20044;-76
2022/07/23 11:59:47;;;;;;;2.45;1.13;;;23.20;99.90;;;;;;5075566;28;20051;-76
2022/07/23 12:02:12;;;;;;;2.90;1.08;;;23.40;99.90;;;;;;5075357;28;20052;-76
2022/07/23 12:04:42;;;;;;;3.28;1.17;;;23.30;99.90;;;;;;5075504;28;20185;-76
2022/07/23 12:07:27;;;;;;;4.30;1.13;;;23.40;99.90;;;;;;5074310;28;20045;-76
2022/07/23 12:09:54;;;;;;;1.92;1.10;;;23.60;99.90;;;;;;5075406;28;20045;-76
2022/07/23 12:12:20;;;;;;;3.67;1.05;;;23.70;99.90;;;;;;5073916;28;20045;-76
2022/07/23 12:14:57;;;;;;;3.20;1.05;;;23.80;99.90;;;;;;5075125;28;20032;-76
2022/07/23 12:17:32;;;;;;;4.80;1.10;;;23.90;99.90;;;;;;5074824;28;20044;-76
2022/07/23 12:19:59;;;;;;;7.38;1.40;;;23.60;99.90;;;;;;5073690;28;20076;-76
2022/07/23 12:22:32;;;;;;;2.80;1.17;;;23.70;99.90;;;;;;5074928;28;20061;-76
2022/07/23 12:25:05;;;;;;;4.43;1.35;;;23.70;99.90;;;;;;5075166;28;20070;-76
2022/07/23 12:27:32;;;;;;;3.30;1.30;;;23.80;99.90;;;;;;5074000;28;20502;-76
2022/07/23 12:29:57;;;;;;;2.45;1.10;;;23.80;99.90;;;;;;5073780;28;20059;-76
2022/07/23 12:32:26;;;;;;;5.75;1.40;;;24.00;99.90;;;;;;5074996;28;20040;-76
2022/07/23 12:35:05;;;;;;;3.33;1.23;;;24.10;99.90;;;;;;5074648;28;20469;-76
2022/07/23 12:37:36;;;;;;;2.97;1.20;;;24.10;99.90;;;;;;5074628;28;20479;-76
2022/07/23 12:40:20;;;;;;;4.35;1.33;;;24.00;99.90;;;;;;5074757;28;20127;-76
2022/07/23 12:42:48;;;;;;;5.03;1.17;;;24.10;99.90;;;;;;5074581;28;20511;-76
2022/07/23 12:45:14;;;;;;;6.68;1.30;;;24.10;99.90;;;;;;5074580;28;20115;-76
2022/07/23 12:47:59;;;;;;;3.35;1.27;;;24.20;99.90;;;;;;5073471;28;20055;-76
2022/07/23 12:50:34;;;;;;;3.25;1.10;;;24.20;99.90;;;;;;5074422;28;20562;-76
2022/07/23 12:53:08;;;;;;;2.78;1.15;;;24.40;99.90;;;;;;5073039;28;20044;-76
2022/07/23 12:55:35;;;;;;;6.03;1.35;;;24.30;99.90;;;;;;5074627;28;20045;-76
2022/07/23 12:58:20;;;;;;;4.55;1.00;;;24.20;99.90;;;;;;5073198;28;20437;-77